Time;durP1;ratioP1;P1;durP2;ratioP2;P2;SDS_P1;SDS_P2;PMS_P1;PMS_P2;Temp;Humidity;BMP_temperature;BMP_pressure;BME280_temperature;BME280_humidity;BME280_pressure;Samples;Min_cycle;Max_cycle;Signal;HPM_P1;HPM_P2
2022/09/25 00:01:11;;;;;;;4.13;1.20;;;19.70;74.70;;;;;;5112078;28;20035;-69
2022/09/25 00:03:37;;;;;;;3.40;1.42;;;19.60;74.70;;;;;;5113512;28;20391;-69
2022/09/25 00:06:08;;;;;;;3.35;1.23;;;19.60;74.70;;;;;;5113129;28;20031;-69
2022/09/25 00:08:34;;;;;;;4.13;1.05;;;19.70;74.70;;;;;;5113432;28;20027;-69
2022/09/25 00:10:59;;;;;;;3.33;1.35;;;19.70;74.80;;;;;;5056715;28;20024;-69
2022/09/25 00:13:25;;;;;;;4.75;1.10;;;19.70;74.80;;;;;;5071486;28;20036;-69
2022/09/25 00:15:55;;;;;;;4.63;1.05;;;19.70;74.70;;;;;;5071432;28;20021;-69
2022/09/25 00:21:05;;;;;;;1.75;1.13;;;19.70;74.70;;;;;;5112845;28;20030;-69
2022/09/25 00:23:32;;;;;;;2.80;0.90;;;19.60;74.70;;;;;;5113089;28;20027;-69
2022/09/25 00:25:58;;;;;;;6.40;1.17;;;19.70;74.70;;;;;;5112893;28;20016;-69
2022/09/25 00:28:26;;;;;;;3.78;0.82;;;19.60;74.80;;;;;;5113078;28;20054;-69
2022/09/25 00:30:51;;;;;;;3.80;1.35;;;19.70;74.80;;;;;;5111964;28;20394;-69
2022/09/25 00:33:17;;;;;;;2.10;1.00;;;19.60;74.70;;;;;;5112787;28;20118;-70
2022/09/25 00:35:42;;;;;;;2.28;1.05;;;19.70;74.80;;;;;;5112727;28;20026;-70
2022/09/25 00:38:08;;;;;;;3.70;1.10;;;19.60;74.80;;;;;;5113012;28;20035;-70
2022/09/25 00:40:34;;;;;;;2.15;0.98;;;19.60;74.80;;;;;;5112905;28;20396;-70
2022/09/25 00:42:59;;;;;;;5.40;1.05;;;19.60;74.80;;;;;;5112544;28;20028;-70
2022/09/25 00:45:25;;;;;;;1.10;1.00;;;19.60;74.80;;;;;;5112893;28;20068;-70
2022/09/25 00:48:01;;;;;;;4.15;1.35;;;19.60;74.80;;;;;;5112910;28;20053;-70
2022/09/25 00:50:33;;;;;;;2.15;1.15;;;19.60;74.80;;;;;;5111167;28;20047;-70
2022/09/25 00:53:09;;;;;;;2.90;0.93;;;19.60;74.80;;;;;;5094679;28;20051;-70
2022/09/25 00:55:35;;;;;;;1.13;0.80;;;19.60;74.90;;;;;;5111702;28;20031;-70
2022/09/25 00:58:00;;;;;;;4.45;1.05;;;19.60;74.80;;;;;;5094567;28;20026;-70
2022/09/25 01:00:26;;;;;;;2.15;0.88;;;19.60;74.80;;;;;;5111525;28;20050;-70
2022/09/25 01:02:52;;;;;;;2.78;1.17;;;19.60;74.90;;;;;;5112588;28;20038;-69
2022/09/25 01:05:26;;;;;;;3.25;1.00;;;19.60;74.80;;;;;;5111126;28;20045;-70
2022/09/25 01:07:52;;;;;;;2.58;1.15;;;19.60;74.80;;;;;;5095529;28;20019;-70
2022/09/25 01:10:18;;;;;;;3.38;0.90;;;19.60;74.80;;;;;;5096228;28;20028;-70
2022/09/25 01:12:44;;;;;;;2.28;0.90;;;19.60;74.90;;;;;;5074474;28;20028;-70
2022/09/25 01:15:11;;;;;;;2.60;0.90;;;19.60;74.90;;;;;;5074140;28;20027;-69
2022/09/25 01:17:59;;;;;;;3.15;0.95;;;19.60;74.90;;;;;;5074147;28;20024;-69
2022/09/25 01:20:30;;;;;;;3.63;1.17;;;19.60;74.90;;;;;;5090769;28;20042;-69
2022/09/25 01:23:23;;;;;;;1.65;0.98;;;19.60;76.00;;;;;;5095670;28;20070;-69
2022/09/25 01:25:59;;;;;;;1.85;1.00;;;19.60;74.90;;;;;;5096056;28;20119;-69
2022/09/25 01:28:37;;;;;;;2.88;1.05;;;19.60;74.90;;;;;;5094761;28;20056;-69
2022/09/25 01:31:08;;;;;;;1.75;0.90;;;19.60;74.90;;;;;;5096089;28;20034;-69
2022/09/25 01:33:35;;;;;;;2.95;1.00;;;19.60;74.90;;;;;;5078538;28;20100;-70
2022/09/25 01:36:10;;;;;;;1.75;1.00;;;19.60;74.80;;;;;;5078082;28;20024;-70
2022/09/25 01:38:41;;;;;;;2.47;0.73;;;19.60;74.80;;;;;;5094660;28;20438;-70
2022/09/25 01:41:22;;;;;;;1.53;0.80;;;19.60;74.80;;;;;;5094475;28;20098;-70
2022/09/25 01:43:54;;;;;;;1.80;0.95;;;19.60;74.70;;;;;;5094602;28;20810;-70
2022/09/25 01:46:20;;;;;;;2.88;1.10;;;19.60;74.70;;;;;;5095583;28;20016;-69
2022/09/25 01:48:49;;;;;;;3.22;0.90;;;19.60;74.70;;;;;;5095653;28;20085;-70
2022/09/25 01:51:15;;;;;;;4.63;1.08;;;19.60;74.70;;;;;;5094106;28;20066;-69
2022/09/25 01:53:52;;;;;;;2.30;1.20;;;19.60;74.70;;;;;;5095715;28;20495;-70
2022/09/25 01:56:54;;;;;;;2.97;1.48;;;19.60;74.70;;;;;;5078857;28;20111;-70
2022/09/25 01:59:28;;;;;;;2.50;1.05;;;19.60;74.70;;;;;;5016665;28;20033;-70
2022/09/25 02:01:54;;;;;;;2.38;0.80;;;19.60;74.80;;;;;;5017047;28;20033;-70
2022/09/25 02:04:23;;;;;;;1.63;0.80;;;19.50;74.60;;;;;;5016601;28;20432;-69
2022/09/25 02:06:50;;;;;;;3.20;0.70;;;19.60;74.70;;;;;;5016750;28;20075;-70
2022/09/25 02:09:43;;;;;;;4.03;0.90;;;19.60;74.70;;;;;;5016467;28;20056;-70
2022/09/25 02:12:18;;;;;;;2.08;1.15;;;19.60;74.70;;;;;;5018289;28;20505;-69
2022/09/25 02:14:54;;;;;;;2.28;1.10;;;19.60;74.70;;;;;;5016844;28;20129;-69
2022/09/25 02:23:07;;;;;;;1.95;1.15;;;19.50;74.70;;;;;;5052615;28;20036;-69
2022/09/25 02:25:37;;;;;;;2.05;0.82;;;19.50;74.70;;;;;;5036146;28;20111;-69
2022/09/25 02:28:03;;;;;;;1.10;0.73;;;19.50;74.80;;;;;;5035738;28;20033;-69
2022/09/25 02:30:28;;;;;;;2.58;0.80;;;19.50;74.70;;;;;;5035761;28;20503;-70
2022/09/25 02:32:56;;;;;;;2.63;1.00;;;19.50;74.70;;;;;;5034904;28;20036;-69
2022/09/25 02:35:23;;;;;;;4.32;1.10;;;19.50;74.70;;;;;;5097474;28;20061;-69
2022/09/25 02:37:50;;;;;;;3.55;1.05;;;19.50;75.80;;;;;;5113920;28;20450;-69
2022/09/25 02:40:15;;;;;;;1.92;0.88;;;19.50;74.80;;;;;;5096919;28;20035;-69
2022/09/25 02:43:13;;;;;;;1.33;0.73;;;19.50;74.80;;;;;;5113660;28;20437;-69
2022/09/25 02:46:07;;;;;;;1.58;0.80;;;19.50;74.80;;;;;;5032091;28;20041;-69
2022/09/25 02:48:55;;;;;;;3.13;1.05;;;19.50;74.80;;;;;;5010348;28;20038;-69
2022/09/25 02:51:30;;;;;;;2.13;1.00;;;19.50;74.90;;;;;;5015457;28;20045;-70
2022/09/25 02:54:39;;;;;;;2.08;0.93;;;19.50;74.90;;;;;;5015892;28;20032;-70
2022/09/25 02:57:07;;;;;;;1.17;0.68;;;19.50;74.80;;;;;;4972995;28;20559;-70
2022/09/25 02:59:35;;;;;;;2.92;0.90;;;19.50;74.90;;;;;;4957065;28;20113;-69
2022/09/25 03:02:01;;;;;;;3.92;1.20;;;19.50;75.00;;;;;;4941205;28;20058;-70
2022/09/25 03:04:26;;;;;;;1.60;1.10;;;19.50;75.00;;;;;;4941107;28;20114;-69
2022/09/25 03:06:52;;;;;;;1.48;0.88;;;19.50;75.00;;;;;;4941021;28;20054;-69
2022/09/25 03:09:18;;;;;;;2.08;0.80;;;19.50;76.00;;;;;;4936257;29;20081;-69
2022/09/25 03:11:44;;;;;;;3.75;0.88;;;19.50;75.00;;;;;;4938003;29;20043;-69
2022/09/25 03:14:10;;;;;;;3.50;0.80;;;19.50;75.00;;;;;;4953703;29;20027;-69
2022/09/25 03:16:50;;;;;;;2.78;0.75;;;19.50;75.00;;;;;;4954385;28;20050;-70
2022/09/25 03:19:18;;;;;;;2.83;0.60;;;19.50;75.00;;;;;;4956719;28;20479;-70
2022/09/25 03:21:44;;;;;;;1.02;0.55;;;19.50;75.00;;;;;;4993091;28;20036;-69
2022/09/25 03:24:10;;;;;;;3.10;1.08;;;19.50;75.00;;;;;;5054825;28;20071;-69
2022/09/25 03:26:36;;;;;;;2.55;0.73;;;19.50;75.10;;;;;;5071234;28;20442;-70
2022/09/25 03:29:02;;;;;;;1.83;0.80;;;19.50;75.00;;;;;;5033857;28;20548;-69
2022/09/25 03:31:28;;;;;;;1.67;0.80;;;19.50;75.10;;;;;;5076120;28;20079;-69
2022/09/25 03:33:54;;;;;;;2.47;1.10;;;19.50;75.10;;;;;;5092501;28;20480;-69
2022/09/25 03:36:21;;;;;;;1.27;0.90;;;19.50;75.10;;;;;;5092269;28;20115;-69
2022/09/25 03:38:49;;;;;;;2.05;0.98;;;19.50;75.20;;;;;;5092367;28;20031;-70
2022/09/25 03:41:19;;;;;;;1.90;1.10;;;19.50;75.20;;;;;;5093408;28;20123;-69
2022/09/25 03:43:46;;;;;;;3.60;1.08;;;19.40;75.10;;;;;;5093232;28;20492;-70
2022/09/25 03:46:12;;;;;;;4.20;1.20;;;19.50;75.20;;;;;;5091465;28;20047;-69
2022/09/25 03:48:38;;;;;;;1.50;0.68;;;19.50;75.20;;;;;;5092001;28;20388;-69
2022/09/25 03:51:05;;;;;;;1.73;0.88;;;19.50;75.30;;;;;;5091911;28;20052;-69
2022/09/25 03:53:32;;;;;;;1.92;0.65;;;19.50;75.20;;;;;;5075316;28;20392;-69
2022/09/25 03:55:58;;;;;;;2.22;0.70;;;19.50;75.20;;;;;;5092094;28;20028;-69
2022/09/25 03:58:24;;;;;;;5.10;1.00;;;19.50;75.20;;;;;;5092794;28;20024;-69
2022/09/25 04:00:50;;;;;;;2.53;0.70;;;19.50;75.20;;;;;;5075195;28;20024;-69
2022/09/25 04:03:16;;;;;;;3.83;1.00;;;19.50;75.20;;;;;;5093155;28;20024;-69
2022/09/25 04:05:42;;;;;;;2.33;0.77;;;19.50;75.30;;;;;;5091982;28;20028;-69
2022/09/25 04:08:08;;;;;;;3.00;0.77;;;19.50;75.30;;;;;;5092109;28;20012;-69
2022/09/25 04:10:37;;;;;;;1.05;0.77;;;19.50;75.30;;;;;;5076379;28;20107;-69
2022/09/25 04:13:07;;;;;;;2.60;0.90;;;19.50;75.30;;;;;;5072486;28;20496;-69
2022/09/25 04:15:33;;;;;;;2.05;0.93;;;19.50;75.30;;;;;;5054994;28;20381;-69
2022/09/25 04:17:59;;;;;;;1.55;0.70;;;19.50;75.30;;;;;;5097057;28;20026;-69
2022/09/25 04:20:24;;;;;;;2.38;0.57;;;19.50;75.30;;;;;;5112945;28;20036;-69
2022/09/25 04:22:50;;;;;;;1.35;0.68;;;19.50;75.40;;;;;;5111967;28;20051;-69
2022/09/25 04:25:16;;;;;;;1.05;0.70;;;19.50;75.40;;;;;;5113015;28;20388;-70
2022/09/25 04:27:43;;;;;;;1.65;0.70;;;19.50;75.30;;;;;;5111471;28;20016;-69
2022/09/25 04:30:09;;;;;;;0.63;0.60;;;19.40;75.30;;;;;;5113229;28;20026;-69
2022/09/25 04:35:19;;;;;;;1.00;0.65;;;19.50;75.40;;;;;;5097408;28;20038;-70
2022/09/25 04:37:44;;;;;;;1.65;0.82;;;19.50;75.50;;;;;;5112956;28;20098;-70
2022/09/25 04:40:10;;;;;;;2.95;0.90;;;19.50;75.40;;;;;;5111563;28;20447;-70
2022/09/25 04:42:36;;;;;;;1.95;0.98;;;19.40;75.40;;;;;;5112609;28;20016;-69
2022/09/25 04:45:01;;;;;;;1.90;0.80;;;19.50;75.40;;;;;;5112724;28;20012;-69
2022/09/25 04:47:30;;;;;;;1.92;0.90;;;19.40;76.40;;;;;;5111501;28;20023;-70
2022/09/25 04:49:56;;;;;;;3.00;1.08;;;19.40;75.30;;;;;;5111698;28;20093;-70
2022/09/25 04:52:22;;;;;;;2.53;0.75;;;19.50;75.40;;;;;;5094502;28;20027;-70
2022/09/25 04:54:47;;;;;;;3.33;1.00;;;19.40;75.30;;;;;;5111560;28;20032;-70
2022/09/25 04:57:14;;;;;;;0.98;0.70;;;19.40;75.30;;;;;;5114781;28;20058;-69
2022/09/25 04:59:40;;;;;;;3.42;0.95;;;19.40;75.40;;;;;;5116834;28;20024;-69
2022/09/25 05:02:06;;;;;;;2.25;0.90;;;19.40;75.40;;;;;;5117199;28;20047;-69
2022/09/25 05:04:31;;;;;;;3.00;0.85;;;19.40;75.40;;;;;;5116931;28;20020;-70
2022/09/25 05:06:57;;;;;;;3.10;1.10;;;19.40;75.40;;;;;;5100070;28;20020;-70
2022/09/25 05:09:22;;;;;;;2.70;1.10;;;19.40;75.40;;;;;;5089832;28;20480;-70
2022/09/25 05:11:48;;;;;;;0.73;0.70;;;19.40;75.40;;;;;;5075893;28;20074;-70
2022/09/25 05:14:14;;;;;;;1.23;0.85;;;19.40;75.40;;;;;;5076276;28;20036;-70
2022/09/25 05:16:39;;;;;;;0.88;0.52;;;19.40;75.40;;;;;;5077934;28;20078;-69
2022/09/25 05:19:05;;;;;;;1.55;0.80;;;19.50;75.40;;;;;;5115397;28;20399;-70
2022/09/25 05:21:31;;;;;;;1.75;0.70;;;19.40;75.40;;;;;;5116460;28;20032;-70
2022/09/25 05:23:57;;;;;;;2.60;0.80;;;19.40;75.40;;;;;;5116621;27;20036;-70
2022/09/25 05:26:23;;;;;;;2.35;0.80;;;19.40;75.50;;;;;;5116320;28;20020;-69
2022/09/25 05:28:49;;;;;;;0.88;0.70;;;19.40;75.40;;;;;;5115392;28;20024;-70
2022/09/25 05:31:15;;;;;;;1.50;0.80;;;19.40;75.40;;;;;;5115261;28;20054;-69
2022/09/25 05:33:42;;;;;;;2.03;0.90;;;19.40;75.40;;;;;;5114933;28;20027;-69
2022/09/25 05:36:08;;;;;;;2.00;0.73;;;19.40;75.40;;;;;;5098508;28;20024;-70
2022/09/25 05:38:35;;;;;;;0.98;0.75;;;19.40;75.50;;;;;;5115023;28;20032;-69
2022/09/25 05:41:04;;;;;;;1.17;0.70;;;19.40;75.50;;;;;;5116153;28;20024;-69
2022/09/25 05:43:31;;;;;;;1.38;0.70;;;19.40;75.50;;;;;;5097920;28;20028;-69
2022/09/25 05:45:57;;;;;;;1.70;0.90;;;19.40;75.50;;;;;;5114961;28;20514;-70
2022/09/25 05:48:23;;;;;;;1.40;0.70;;;19.40;75.50;;;;;;5098115;28;20020;-69
2022/09/25 05:50:55;;;;;;;1.63;0.80;;;19.40;75.50;;;;;;5114940;28;20048;-69
2022/09/25 05:53:21;;;;;;;3.03;0.80;;;19.40;75.50;;;;;;5115038;28;20023;-69
2022/09/25 05:55:53;;;;;;;1.30;0.63;;;19.40;75.50;;;;;;5114482;28;20065;-69
2022/09/25 05:58:20;;;;;;;;;;;19.40;75.50;;;;;;5115134;28;20027;-69
2022/09/25 06:00:46;;;;;;;5.88;0.70;;;19.40;75.60;;;;;;5114669;28;20522;-69
2022/09/25 06:03:13;;;;;;;0.50;0.50;;;19.40;75.70;;;;;;5115831;28;20012;-69
2022/09/25 06:05:41;;;;;;;1.48;0.82;;;19.40;75.60;;;;;;5115620;28;20016;-69
2022/09/25 06:08:07;;;;;;;0.70;0.60;;;19.40;75.70;;;;;;5113659;28;20023;-69
2022/09/25 06:10:33;;;;;;;1.77;0.77;;;19.40;75.60;;;;;;5083884;28;20103;-69
2022/09/25 06:13:00;;;;;;;1.00;0.70;;;19.40;75.70;;;;;;5073980;28;20020;-69
2022/09/25 06:15:33;;;;;;;1.67;0.65;;;19.40;75.70;;;;;;5073821;28;20033;-69
2022/09/25 06:17:58;;;;;;;1.38;0.60;;;19.40;75.60;;;;;;5099094;28;20084;-69
2022/09/25 06:20:24;;;;;;;3.03;0.65;;;19.40;75.60;;;;;;5114137;28;20031;-69
2022/09/25 06:22:53;;;;;;;1.30;0.70;;;19.40;75.70;;;;;;5114348;28;20394;-69
2022/09/25 06:25:20;;;;;;;1.13;0.50;;;19.40;75.60;;;;;;5114316;28;20016;-69
2022/09/25 06:27:46;;;;;;;2.40;0.90;;;19.40;75.70;;;;;;5113936;28;20019;-69
2022/09/25 06:30:12;;;;;;;1.48;0.80;;;19.40;75.70;;;;;;5115258;28;20080;-69
2022/09/25 06:32:37;;;;;;;1.00;0.60;;;19.30;75.60;;;;;;5115121;28;20028;-69
2022/09/25 06:35:04;;;;;;;1.27;0.70;;;19.40;75.80;;;;;;5115254;28;20079;-69
2022/09/25 06:37:29;;;;;;;1.35;0.68;;;19.30;75.60;;;;;;5115068;28;20043;-69
2022/09/25 06:39:55;;;;;;;2.80;0.85;;;19.30;75.60;;;;;;5115001;28;20571;-69
2022/09/25 06:42:20;;;;;;;2.10;0.63;;;19.30;75.60;;;;;;5113976;28;20012;-70
2022/09/25 06:44:46;;;;;;;1.23;0.70;;;19.30;76.60;;;;;;5114817;28;20047;-69
2022/09/25 06:47:12;;;;;;;0.85;0.57;;;19.30;75.60;;;;;;5115011;28;20041;-69
2022/09/25 06:49:38;;;;;;;0.55;0.50;;;19.30;75.60;;;;;;5114582;28;20069;-69
2022/09/25 06:52:03;;;;;;;2.15;0.60;;;19.30;75.60;;;;;;5114712;28;20016;-69
2022/09/25 06:54:30;;;;;;;8.00;0.70;;;19.30;75.70;;;;;;5114837;28;20491;-69
2022/09/25 06:56:56;;;;;;;1.50;0.70;;;19.30;75.70;;;;;;5096700;28;20560;-69
2022/09/25 06:59:21;;;;;;;1.35;0.70;;;19.30;75.70;;;;;;5098626;28;20021;-69
2022/09/25 07:01:47;;;;;;;0.80;0.50;;;19.30;75.80;;;;;;5072194;28;20048;-68
2022/09/25 07:04:12;;;;;;;8.05;0.73;;;19.30;75.80;;;;;;5076594;28;20047;-69
2022/09/25 07:06:38;;;;;;;1.13;0.60;;;19.30;75.70;;;;;;5072977;28;20013;-70
2022/09/25 07:09:04;;;;;;;1.17;0.63;;;19.40;75.80;;;;;;5074630;28;20026;-69
2022/09/25 07:11:32;;;;;;;2.72;0.70;;;19.40;75.80;;;;;;5071132;28;20163;-69
2022/09/25 07:13:58;;;;;;;2.85;0.45;;;19.40;75.90;;;;;;5074386;28;20028;-69
2022/09/25 07:16:25;;;;;;;4.35;1.00;;;19.40;75.90;;;;;;5073027;28;20028;-69
2022/09/25 07:18:56;;;;;;;4.07;0.90;;;19.30;75.90;;;;;;5075160;28;20027;-69
2022/09/25 07:21:23;;;;;;;1.55;0.70;;;19.40;76.00;;;;;;5072700;28;20059;-69
2022/09/25 07:23:49;;;;;;;4.53;0.82;;;19.40;76.10;;;;;;5070948;28;20020;-70
2022/09/25 07:26:25;;;;;;;4.82;0.70;;;19.40;76.10;;;;;;5070685;28;20032;-69
2022/09/25 07:29:02;;;;;;;1.90;0.70;;;19.30;76.00;;;;;;5072873;28;20108;-69
2022/09/25 07:31:29;;;;;;;3.70;0.80;;;19.40;76.00;;;;;;5070858;28;20090;-70
2022/09/25 07:34:01;;;;;;;4.53;0.63;;;19.30;76.00;;;;;;5070511;28;20020;-69
2022/09/25 07:36:27;;;;;;;1.60;0.68;;;19.30;76.00;;;;;;5070813;28;20384;-69
2022/09/25 07:38:53;;;;;;;2.17;1.00;;;19.30;76.10;;;;;;5070575;28;20058;-69
2022/09/25 07:41:19;;;;;;;2.70;0.63;;;19.30;76.00;;;;;;5072391;28;20401;-69
2022/09/25 07:43:45;;;;;;;3.33;0.85;;;19.40;76.10;;;;;;5072654;28;20070;-69
2022/09/25 07:46:11;;;;;;;1.80;0.60;;;19.30;76.10;;;;;;5072794;28;20012;-70
2022/09/25 07:48:37;;;;;;;3.55;0.70;;;19.40;76.20;;;;;;5072459;28;20302;-70
2022/09/25 07:51:07;;;;;;;5.80;1.15;;;19.40;76.10;;;;;;5074193;28;20119;-69
2022/09/25 07:53:33;;;;;;;3.58;0.70;;;19.40;76.10;;;;;;5072323;28;20426;-70
2022/09/25 07:55:59;;;;;;;2.08;0.50;;;19.40;76.10;;;;;;5071391;28;20093;-70
2022/09/25 07:58:25;;;;;;;3.13;0.60;;;19.40;76.10;;;;;;5072439;28;20028;-69
2022/09/25 08:00:53;;;;;;;1.50;0.70;;;19.40;76.20;;;;;;5071297;28;20016;-70
2022/09/25 08:03:18;;;;;;;1.25;0.70;;;19.40;76.10;;;;;;5074480;28;20035;-69
2022/09/25 08:05:44;;;;;;;3.08;0.68;;;19.40;76.10;;;;;;5069812;28;20013;-69
2022/09/25 08:08:10;;;;;;;1.08;0.70;;;19.40;76.10;;;;;;5078557;28;20020;-70
2022/09/25 08:10:35;;;;;;;2.10;0.70;;;19.40;76.10;;;;;;5073178;28;20020;-69
2022/09/25 08:13:01;;;;;;;3.08;0.93;;;19.40;76.10;;;;;;5071047;28;20032;-69
2022/09/25 08:15:26;;;;;;;1.48;0.57;;;19.40;76.10;;;;;;5070133;28;20020;-69
2022/09/25 08:17:52;;;;;;;3.40;0.75;;;19.30;76.10;;;;;;5070419;28;20040;-69
2022/09/25 08:20:18;;;;;;;3.60;0.93;;;19.40;76.10;;;;;;5070807;28;20051;-70
2022/09/25 08:22:43;;;;;;;4.45;0.90;;;19.30;76.10;;;;;;5073101;28;20017;-69
2022/09/25 08:25:09;;;;;;;1.58;0.60;;;19.40;76.10;;;;;;5071172;28;20040;-69
2022/09/25 08:27:39;;;;;;;5.05;0.90;;;19.40;76.10;;;;;;5072828;28;20086;-69
2022/09/25 08:30:09;;;;;;;3.78;0.73;;;19.30;76.00;;;;;;5077926;28;20055;-69
2022/09/25 08:32:35;;;;;;;3.03;0.90;;;19.40;76.20;;;;;;5076060;28;20146;-69
2022/09/25 08:35:01;;;;;;;2.92;0.80;;;19.30;76.10;;;;;;5074947;28;20496;-69
2022/09/25 08:37:27;;;;;;;2.92;0.88;;;19.40;76.10;;;;;;5059077;28;20028;-70
2022/09/25 08:39:53;;;;;;;3.97;0.68;;;19.30;76.00;;;;;;5072670;28;20033;-69
2022/09/25 08:42:25;;;;;;;4.25;0.70;;;19.30;76.00;;;;;;5073784;28;20104;-69
2022/09/25 08:50:24;;;;;;;2.88;0.68;;;19.40;75.10;;;;;;5054544;28;20056;-69
2022/09/25 08:52:59;;;;;;;3.05;0.90;;;19.30;74.10;;;;;;5033982;28;20033;-69
2022/09/25 08:56:13;;;;;;;3.03;0.80;;;19.20;73.70;;;;;;5032653;28;20505;-69
2022/09/25 08:58:31;;;;;;;7.47;1.13;;;19.30;73.50;;;;;;5035787;28;20119;-69
2022/09/25 09:01:02;;;;;;;3.95;0.60;;;19.20;73.20;;;;;;5037127;28;20028;-68
2022/09/25 09:03:29;;;;;;;4.55;1.27;;;19.20;73.00;;;;;;5031470;28;20064;-69
2022/09/25 09:06:03;;;;;;;2.25;1.00;;;19.10;72.50;;;;;;5031662;28;20033;-69
2022/09/25 09:08:29;;;;;;;4.00;0.80;;;19.10;72.30;;;;;;5048083;28;20501;-71
2022/09/25 09:11:12;;;;;;;3.28;0.60;;;19.10;71.90;;;;;;5049812;28;20029;-71
2022/09/25 09:14:01;;;;;;;2.83;0.65;;;19.10;71.90;;;;;;5016876;28;20531;-71
2022/09/25 09:16:55;;;;;;;6.88;1.33;;;19.10;71.70;;;;;;5062514;28;20052;-71
2022/09/25 09:19:20;;;;;;;2.53;0.80;;;19.10;71.60;;;;;;4990320;28;20141;-71
2022/09/25 09:22:05;;;;;;;2.50;0.95;;;19.10;71.70;;;;;;4973889;28;20058;-71
2022/09/25 09:25:00;;;;;;;4.05;0.90;;;19.10;71.60;;;;;;4983578;28;20034;-71
2022/09/25 09:28:01;;;;;;;4.78;0.80;;;19.10;71.20;;;;;;4977197;28;20038;-71
2022/09/25 09:30:29;;;;;;;3.92;1.00;;;19.10;70.90;;;;;;5009948;28;20052;-71
2022/09/25 09:33:10;;;;;;;6.28;1.17;;;19.00;70.80;;;;;;4993543;28;20077;-71
2022/09/25 09:35:45;;;;;;;7.60;1.00;;;19.00;70.80;;;;;;4976956;28;20441;-71
2022/09/25 09:38:47;;;;;;;3.83;0.63;;;19.10;70.70;;;;;;4994170;28;20111;-71
2022/09/25 09:41:37;;;;;;;4.40;0.88;;;19.00;70.60;;;;;;5009386;28;20046;-71
2022/09/25 09:44:22;;;;;;;4.60;1.00;;;19.00;70.60;;;;;;4996683;28;20146;-72
2022/09/25 09:46:57;;;;;;;5.80;1.10;;;19.00;70.70;;;;;;5013187;28;20029;-72
2022/09/25 09:50:02;;;;;;;3.60;0.98;;;19.00;70.70;;;;;;5013216;28;20041;-72
2022/09/25 09:52:33;;;;;;;6.72;0.90;;;19.00;70.60;;;;;;5013360;28;20049;-72
2022/09/25 09:55:21;;;;;;;2.42;0.70;;;19.00;70.80;;;;;;4997021;28;20125;-71
2022/09/25 09:57:55;;;;;;;3.03;0.68;;;19.00;70.70;;;;;;4993541;28;20214;-72
2022/09/25 10:00:21;;;;;;;2.45;0.77;;;19.00;70.80;;;;;;4977304;28;20133;-72
2022/09/25 10:03:15;;;;;;;6.10;1.00;;;19.00;70.40;;;;;;4945375;28;20488;-72
2022/09/25 10:05:43;;;;;;;6.05;0.90;;;19.00;70.20;;;;;;5002143;28;20061;-72
2022/09/25 10:08:09;;;;;;;6.93;0.80;;;19.00;70.30;;;;;;5073561;28;20038;-72
2022/09/25 10:10:40;;;;;;;3.92;0.80;;;19.00;70.30;;;;;;5073562;28;20036;-71
2022/09/25 10:13:35;;;;;;;5.78;0.95;;;19.00;70.40;;;;;;5075750;28;20020;-71
2022/09/25 10:16:11;;;;;;;31.23;3.15;;;19.00;70.40;;;;;;5091755;28;20572;-71
2022/09/25 10:18:47;;;;;;;22.55;4.53;;;18.90;70.50;;;;;;5112044;28;20072;-72
2022/09/25 10:21:23;;;;;;;31.85;4.25;;;18.90;70.50;;;;;;5097796;28;20115;-72
2022/09/25 10:23:49;;;;;;;33.72;3.75;;;18.90;70.70;;;;;;5098353;28;20061;-71
2022/09/25 10:26:26;;;;;;;19.65;3.58;;;18.90;71.00;;;;;;5114198;28;20069;-71
2022/09/25 10:28:56;;;;;;;24.08;3.15;;;19.00;73.30;;;;;;5106365;28;20027;-71
2022/09/25 10:31:21;;;;;;;17.77;3.00;;;19.00;72.80;;;;;;5095094;28;20024;-72
2022/09/25 10:34:12;;;;;;;20.30;3.35;;;19.00;72.00;;;;;;5093896;28;20159;-70
2022/09/25 10:36:42;;;;;;;25.98;3.65;;;19.00;72.50;;;;;;5093946;28;20515;-71
2022/09/25 10:39:33;;;;;;;15.70;2.75;;;19.00;73.10;;;;;;5094193;28;20020;-71
2022/09/25 10:42:06;;;;;;;18.17;3.60;;;19.00;73.70;;;;;;5092949;28;20099;-71
2022/09/25 10:44:36;;;;;;;16.65;3.33;;;19.00;74.20;;;;;;5076844;28;20016;-71
2022/09/25 10:50:21;;;;;;;21.95;3.10;;;19.00;74.40;;;;;;5094324;28;20043;-71
2022/09/25 10:52:51;;;;;;;14.35;2.17;;;19.00;74.60;;;;;;5093170;28;20012;-71
2022/09/25 10:55:24;;;;;;;20.23;2.92;;;19.10;74.90;;;;;;5093545;28;20024;-71
2022/09/25 10:57:53;;;;;;;18.25;3.40;;;19.00;74.80;;;;;;5092951;28;20049;-71
2022/09/25 11:00:23;;;;;;;19.33;3.55;;;19.10;74.90;;;;;;5076125;28;20092;-71
2022/09/25 11:03:01;;;;;;;13.93;3.25;;;19.00;74.80;;;;;;5092956;28;20012;-71
2022/09/25 11:05:32;;;;;;;15.07;3.08;;;19.00;74.80;;;;;;5092943;28;20020;-71
2022/09/25 11:08:00;;;;;;;10.65;3.30;;;19.10;75.20;;;;;;5076016;28;20020;-71
2022/09/25 11:10:33;;;;;;;17.75;2.65;;;19.00;75.00;;;;;;5078642;28;20029;-71
2022/09/25 11:12:59;;;;;;;12.93;3.15;;;19.00;75.00;;;;;;5072066;28;20027;-71
2022/09/25 11:15:26;;;;;;;17.30;2.70;;;19.10;75.20;;;;;;5072321;28;20032;-71
2022/09/25 11:17:55;;;;;;;12.68;2.78;;;19.10;75.00;;;;;;5095866;28;20037;-71
2022/09/25 11:20:28;;;;;;;11.02;2.28;;;19.10;75.20;;;;;;5096088;28;20103;-71
2022/09/25 11:23:18;;;;;;;11.35;2.35;;;19.00;75.10;;;;;;5114174;28;20028;-71
2022/09/25 11:25:52;;;;;;;10.52;2.40;;;19.00;75.10;;;;;;5114037;28;20023;-71
2022/09/25 11:28:38;;;;;;;12.60;2.67;;;19.10;75.20;;;;;;5112525;28;20027;-71
2022/09/25 11:31:14;;;;;;;13.60;2.25;;;19.00;74.90;;;;;;5112604;28;20019;-71
2022/09/25 11:34:16;;;;;;;8.25;2.40;;;19.10;75.00;;;;;;5112682;28;20110;-71
2022/09/25 11:37:02;;;;;;;13.35;3.30;;;19.00;75.00;;;;;;5102167;28;20070;-71
2022/09/25 11:42:36;;;;;;;11.20;2.58;;;19.00;75.10;;;;;;5113332;28;20407;-71
2022/09/25 11:45:22;;;;;;;7.60;2.40;;;19.10;75.20;;;;;;5030681;28;20041;-71
2022/09/25 11:47:53;;;;;;;9.68;2.75;;;19.00;74.90;;;;;;5015220;28;20042;-71
2022/09/25 11:50:19;;;;;;;12.20;2.90;;;19.10;75.00;;;;;;5014506;28;20081;-71
2022/09/25 11:53:02;;;;;;;11.45;2.45;;;19.00;75.10;;;;;;5014345;28;20129;-71
2022/09/25 11:55:56;;;;;;;6.38;1.67;;;19.00;75.10;;;;;;5030882;28;20076;-71
2022/09/25 11:58:34;;;;;;;8.65;2.17;;;19.10;75.20;;;;;;5014114;28;20048;-71
2022/09/25 12:01:21;;;;;;;13.07;2.53;;;19.00;75.10;;;;;;5030386;28;20500;-71
2022/09/25 12:04:02;;;;;;;11.27;2.50;;;19.00;75.20;;;;;;5030609;28;20400;-71
2022/09/25 12:06:43;;;;;;;8.88;2.42;;;19.10;75.00;;;;;;5029778;28;20152;-71
2022/09/25 12:09:14;;;;;;;10.35;2.35;;;19.10;75.00;;;;;;5007535;28;20045;-71
2022/09/25 12:11:48;;;;;;;11.77;2.25;;;19.10;75.90;;;;;;4990989;28;20035;-71
2022/09/25 12:14:30;;;;;;;8.82;2.60;;;19.00;74.90;;;;;;4991137;28;20573;-71
2022/09/25 12:17:17;;;;;;;12.00;2.88;;;19.00;74.90;;;;;;4998798;28;20108;-71
2022/09/25 12:20:18;;;;;;;9.02;2.45;;;19.10;74.90;;;;;;5014007;28;20030;-71
2022/09/25 12:23:01;;;;;;;6.15;2.05;;;19.00;74.80;;;;;;5076363;28;20175;-71
2022/09/25 12:25:46;;;;;;;10.00;2.13;;;19.00;74.80;;;;;;5111605;28;20433;-71
2022/09/25 12:28:24;;;;;;;6.25;2.00;;;19.00;74.80;;;;;;5112967;28;20098;-71
2022/09/25 12:31:30;;;;;;;4.90;2.13;;;19.10;74.80;;;;;;5113030;28;20031;-71
2022/09/25 12:33:59;;;;;;;7.80;2.40;;;19.10;74.90;;;;;;5103466;28;20039;-71
2022/09/25 12:36:38;;;;;;;4.70;2.00;;;19.10;74.80;;;;;;5111636;28;20043;-71
2022/09/25 12:39:30;;;;;;;8.25;1.88;;;19.10;74.90;;;;;;5095290;28;20016;-71
2022/09/25 12:42:05;;;;;;;5.97;2.13;;;19.10;74.90;;;;;;5111424;28;20077;-71
2022/09/25 12:44:48;;;;;;;8.35;1.98;;;19.10;74.90;;;;;;5111546;28;20059;-71
2022/09/25 12:47:32;;;;;;;7.32;1.90;;;19.10;74.90;;;;;;5111231;28;20035;-71
2022/09/25 12:50:15;;;;;;;6.50;1.90;;;19.10;74.90;;;;;;5095931;28;20042;-71
2022/09/25 12:52:50;;;;;;;5.22;1.77;;;19.10;74.90;;;;;;5112805;28;20043;-71
2022/09/25 12:55:30;;;;;;;8.07;1.77;;;19.00;74.80;;;;;;5111027;28;20093;-71
2022/09/25 12:58:16;;;;;;;5.70;1.90;;;19.10;74.90;;;;;;5111385;28;20024;-71
2022/09/25 13:00:42;;;;;;;5.45;1.65;;;19.10;74.90;;;;;;5096365;28;20054;-71
2022/09/25 13:03:21;;;;;;;6.18;1.73;;;19.10;74.90;;;;;;5111145;28;20024;-71
2022/09/25 13:06:08;;;;;;;7.00;2.10;;;19.10;74.90;;;;;;5095887;28;20111;-71
2022/09/25 13:08:56;;;;;;;7.53;1.75;;;19.10;74.90;;;;;;5096604;28;20019;-71
2022/09/25 13:11:25;;;;;;;4.13;1.60;;;19.00;74.80;;;;;;5070769;28;20035;-71
2022/09/25 13:13:52;;;;;;;9.27;1.92;;;19.10;74.90;;;;;;5071722;28;20032;-71
2022/09/25 13:16:18;;;;;;;5.40;1.70;;;19.10;74.90;;;;;;5071803;28;20039;-71
2022/09/25 13:18:48;;;;;;;7.03;2.03;;;19.10;74.90;;;;;;5094751;28;20403;-71
2022/09/25 13:21:31;;;;;;;4.20;1.67;;;19.10;74.90;;;;;;5114919;28;20098;-71
2022/09/25 13:23:58;;;;;;;;;;;19.10;74.90;;;;;;5098513;28;20027;-71
2022/09/25 13:26:25;;;;;;;4.85;1.98;;;19.10;74.70;;;;;;5116242;28;19910;-71
2022/09/25 13:28:56;;;;;;;5.43;1.70;;;19.10;74.80;;;;;;5115457;28;20020;-71
2022/09/25 13:31:29;;;;;;;4.70;1.40;;;19.10;74.90;;;;;;5115060;28;20031;-71